Time;durP1;ratioP1;P1;durP2;ratioP2;P2;SDS_P1;SDS_P2;PMS_P1;PMS_P2;Temp;Humidity;BMP_temperature;BMP_pressure;BME280_temperature;BME280_humidity;BME280_pressure;Samples;Min_cycle;Max_cycle;Signal;HPM_P1;HPM_P2
2022/02/01 00:01:00;;;;;;;;;10.00;9.25;;;;;6.79;51.64;102307.91;5040282;28;45363;-40
2022/02/01 00:03:29;;;;;;;;;16.25;11.75;;;;;6.77;51.66;102306.97;5040076;28;45411;-40
2022/02/01 00:06:10;;;;;;;;;16.00;13.25;;;;;6.73;51.87;102289.47;5038899;28;45472;-40
2022/02/01 00:35:56;;;;;;;;;11.75;9.75;;;;;6.28;52.32;102295.19;5040099;28;45315;-40
2022/02/01 00:38:27;;;;;;;;;11.75;10.00;;;;;6.27;52.21;102303.84;5039657;28;45351;-40
2022/02/01 00:40:56;;;;;;;;;13.50;12.50;;;;;6.23;51.77;102295.06;5038329;28;45512;-40
2022/02/01 00:43:22;;;;;;;;;16.25;12.50;;;;;6.22;52.17;102301.09;5039444;28;45330;-40
2022/02/01 00:45:48;;;;;;;;;15.25;14.25;;;;;6.23;52.19;102307.22;5040008;28;45343;-40
2022/02/01 00:48:13;;;;;;;;;18.25;14.00;;;;;6.22;52.26;102308.06;5039188;28;45469;-41
2022/02/01 00:50:39;;;;;;;;;16.75;15.00;;;;;6.22;52.37;102306.31;5038425;28;46098;-40
2022/02/01 00:53:04;;;;;;;;;16.75;11.50;;;;;6.20;52.35;102308.03;5039533;28;45351;-40
2022/02/01 00:55:30;;;;;;;;;18.25;14.50;;;;;6.17;52.46;102302.69;5039804;28;45523;-40
2022/02/01 00:57:55;;;;;;;;;12.00;11.25;;;;;6.11;52.17;102313.88;5039434;28;45471;-40
2022/02/01 01:00:21;;;;;;;;;14.50;13.50;;;;;6.20;52.18;102330.63;5039407;28;45198;-40
2022/02/01 01:02:46;;;;;;;;;18.50;14.25;;;;;6.14;52.15;102327.00;5039315;28;45253;-41
2022/02/01 01:05:12;;;;;;;;;17.00;15.00;;;;;6.17;52.43;102336.63;5039537;28;45452;-40
2022/02/01 01:07:37;;;;;;;;;20.25;14.50;;;;;6.17;52.24;102336.63;5039483;28;45308;-40
2022/02/01 01:10:05;;;;;;;;;12.75;9.00;;;;;6.16;52.32;102330.53;5040500;28;47120;-40
2022/02/01 01:12:34;;;;;;;;;12.50;10.75;;;;;6.16;52.46;102335.75;5043172;28;45434;-40
2022/02/01 01:44:37;;;;;;;;;15.50;10.75;;;;;6.09;52.59;102302.47;5042508;28;45365;-41
2022/02/01 01:55:32;;;;;;;;;12.25;9.00;;;;;6.10;52.97;102313.78;5039803;28;45459;-41
2022/02/01 01:57:57;;;;;;;;;9.75;8.50;;;;;6.11;52.89;102313.88;5038269;28;45300;-41
2022/02/01 02:00:51;;;;;;;;;10.50;10.25;;;;;6.11;52.63;102320.78;5041953;28;45306;-40
2022/02/01 02:03:08;;;;;;;;;13.00;13.00;;;;;6.11;52.78;102315.56;5041541;28;45911;-40
2022/02/01 02:05:33;;;;;;;;;11.50;9.00;;;;;6.09;52.84;102312.94;5042308;28;45322;-40
2022/02/01 02:07:59;;;;;;;;;13.75;9.50;;;;;6.11;52.73;102305.13;5042111;28;45433;-40
2022/02/01 02:10:32;;;;;;;;;11.00;9.75;;;;;6.10;52.91;102292.91;5041756;28;45721;-40
2022/02/01 02:15:55;;;;;;;;;10.25;9.00;;;;;6.08;52.91;102311.16;5027057;28;45202;-40
2022/02/01 02:18:21;;;;;;;;;7.50;6.75;;;;;6.10;52.91;102313.78;5041745;28;45469;-40
2022/02/01 02:20:49;;;;;;;;;8.00;7.00;;;;;6.10;53.05;102304.25;5040949;28;45292;-40
2022/02/01 02:23:15;;;;;;;;;7.75;7.25;;;;;6.10;52.85;102303.34;5041892;28;45505;-40
2022/02/01 02:25:40;;;;;;;;;7.00;7.00;;;;;6.10;53.03;102304.25;5041611;28;45272;-40
2022/02/01 02:28:07;;;;;;;;;14.75;9.25;;;;;6.10;53.19;102317.31;5040609;28;45323;-41
2022/02/01 02:30:33;;;;;;;;;9.75;9.00;;;;;6.12;53.04;102317.34;5041657;28;45398;-40
2022/02/01 02:33:04;;;;;;;;;10.50;8.25;;;;;6.13;52.93;102298.25;5041286;28;45323;-40
2022/02/01 02:35:34;;;;;;;;;11.75;9.50;;;;;6.14;53.11;102303.50;5041542;28;45358;-40
2022/02/01 02:38:05;;;;;;;;;7.75;7.75;;;;;6.16;52.93;102306.16;5041723;28;45288;-40
2022/02/01 02:40:56;;;;;;;;;7.25;4.00;;;;;6.15;53.09;102305.28;5041053;28;45448;-40
2022/02/01 02:46:00;;;;;;;;;8.50;8.00;;;;;6.18;53.22;102300.13;5041407;28;45396;-41
2022/02/01 02:48:26;;;;;;;;;11.25;8.50;;;;;6.22;53.09;102308.06;5041078;28;45315;-40
2022/02/01 02:50:51;;;;;;;;;9.00;6.25;;;;;6.25;53.15;102305.53;5041452;28;45414;-40
2022/02/01 02:53:17;;;;;;;;;9.25;6.50;;;;;6.27;52.94;102291.69;5041173;28;46023;-40
2022/02/01 02:55:42;;;;;;;;;9.50;8.50;;;;;6.30;53.18;102275.22;5041388;28;45341;-40
2022/02/01 02:58:08;;;;;;;;;7.75;7.00;;;;;6.30;52.99;102255.22;5041347;28;45301;-40
2022/02/01 03:00:33;;;;;;;;;11.75;7.75;;;;;6.35;53.33;102250.09;5041334;28;45488;-40
2022/02/01 03:02:58;;;;;;;;;10.50;8.25;;;;;6.37;53.24;102238.00;5041036;28;46110;-40
2022/02/01 03:05:24;;;;;;;;;8.50;5.50;;;;;6.39;53.52;102246.75;5041307;28;45350;-40
2022/02/01 03:07:49;;;;;;;;;13.00;9.00;;;;;6.38;53.35;102250.22;5041264;28;45837;-40
2022/02/01 03:10:14;;;;;;;;;5.50;4.50;;;;;6.41;53.67;102252.00;5040949;28;45361;-40
2022/02/01 03:20:38;;;;;;;;;9.25;7.25;;;;;6.40;53.72;102260.69;5040859;28;45224;-40
2022/02/01 03:23:04;;;;;;;;;10.50;8.00;;;;;6.40;54.02;102251.16;5003048;28;47155;-40
2022/02/01 03:25:29;;;;;;;;;8.25;7.75;;;;;6.41;53.88;102249.41;5033411;28;45351;-40
2022/02/01 03:27:54;;;;;;;;;10.50;8.00;;;;;6.41;53.93;102247.66;5040779;28;45256;-40
2022/02/01 03:30:22;;;;;;;;;6.25;5.00;;;;;6.43;54.01;102245.13;5040920;28;45220;-40
2022/02/01 03:32:47;;;;;;;;;9.25;7.00;;;;;6.45;53.99;102238.19;5039014;28;45979;-40
2022/02/01 03:35:12;;;;;;;;;9.75;6.25;;;;;6.45;54.14;102239.09;5039301;28;45955;-40
2022/02/01 03:37:38;;;;;;;;;5.50;5.50;;;;;6.49;54.29;102247.88;5040745;28;45480;-40
2022/02/01 03:40:04;;;;;;;;;7.00;4.50;;;;;6.51;54.17;102240.97;5040268;28;45309;-40
2022/02/01 03:42:29;;;;;;;;;9.25;4.75;;;;;6.53;54.11;102248.84;5039256;28;47266;-40
2022/02/01 03:44:55;;;;;;;;;3.75;3.50;;;;;6.54;53.91;102250.63;5040729;28;45311;-40
2022/02/01 03:47:20;;;;;;;;;6.00;4.75;;;;;6.57;54.24;102250.72;5040331;28;45379;-40
2022/02/01 03:49:46;;;;;;;;;9.50;5.25;;;;;6.59;54.60;102254.22;5040602;28;45228;-40
2022/02/01 03:52:11;;;;;;;;;4.50;3.25;;;;;6.60;54.59;102262.13;5040309;28;45232;-40
2022/02/01 03:54:38;;;;;;;;;7.75;6.50;;;;;6.61;54.54;102248.19;5040338;28;45303;-40
2022/02/01 03:57:06;;;;;;;;;10.50;10.50;;;;;6.62;54.73;102243.88;5040305;28;45254;-40
2022/02/01 03:59:32;;;;;;;;;8.25;5.50;;;;;6.62;54.78;102225.59;5022190;28;45462;-40
2022/02/01 04:01:59;;;;;;;;;4.75;4.75;;;;;6.64;54.85;102226.50;5052283;28;47013;-40
2022/02/01 04:04:27;;;;;;;;;5.50;4.50;;;;;6.64;54.89;102211.72;5011572;28;45310;-41
2022/02/01 04:06:54;;;;;;;;;10.00;6.00;;;;;6.65;54.90;102209.97;5038782;28;45324;-41
2022/02/01 04:09:22;;;;;;;;;6.25;6.25;;;;;6.67;54.97;102211.78;5038520;28;45483;-41
2022/02/01 04:11:47;;;;;;;;;8.00;7.00;;;;;6.70;54.96;102215.34;5040079;28;46926;-41
2022/02/01 04:14:16;;;;;;;;;8.00;6.00;;;;;6.72;55.11;102219.75;5040195;28;45252;-41
2022/02/01 04:16:42;;;;;;;;;12.25;7.75;;;;;6.74;54.96;102214.56;5039052;28;45308;-41
2022/02/01 04:19:07;;;;;;;;;7.00;4.00;;;;;6.76;55.28;102225.94;5039829;28;45322;-41
2022/02/01 04:21:32;;;;;;;;;13.50;5.00;;;;;6.76;55.27;102228.56;5039973;28;45696;-41
2022/02/01 04:23:58;;;;;;;;;6.25;6.25;;;;;6.77;55.50;102219.88;5038666;28;45185;-40
2022/02/01 04:26:23;;;;;;;;;6.00;5.50;;;;;6.74;55.44;102212.84;5040151;28;45238;-41
2022/02/01 04:28:49;;;;;;;;;8.75;5.25;;;;;6.74;55.39;102198.88;5040122;28;45434;-40
2022/02/01 04:31:14;;;;;;;;;10.00;9.00;;;;;6.77;55.52;102212.03;5038558;28;45264;-40
2022/02/01 04:33:39;;;;;;;;;9.00;7.75;;;;;6.79;55.50;102213.84;5038380;28;45233;-41
2022/02/01 04:36:05;;;;;;;;;9.50;6.75;;;;;6.81;55.54;102208.66;5052030;28;45165;-43
2022/02/01 04:38:30;;;;;;;;;7.00;5.50;;;;;6.82;55.42;102216.50;5031510;28;45357;-41
2022/02/01 04:40:55;;;;;;;;;8.50;5.75;;;;;6.85;55.54;102220.06;5051551;28;47912;-40
2022/02/01 04:43:21;;;;;;;;;3.25;2.75;;;;;6.85;55.36;102220.06;5032985;28;45338;-41
2022/02/01 04:45:47;;;;;;;;;12.50;9.25;;;;;6.85;55.59;102218.31;5043447;28;45338;-41
2022/02/01 04:48:13;;;;;;;;;16.00;7.00;;;;;6.88;55.80;102222.75;5042970;28;45315;-41
2022/02/01 04:50:39;;;;;;;;;5.00;3.75;;;;;6.89;55.93;102209.69;5043141;28;45938;-40
2022/02/01 04:53:05;;;;;;;;;11.00;7.25;;;;;6.89;56.00;102204.47;5043213;28;45469;-41
2022/02/01 04:56:14;;;;;;;;;8.00;7.75;;;;;6.88;56.10;102201.81;5041812;28;45311;-40
2022/02/01 04:58:25;;;;;;;;;14.00;10.00;;;;;6.94;55.93;102204.59;5039855;28;45639;-42
2022/02/01 05:00:51;;;;;;;;;3.50;3.00;;;;;6.94;56.16;102201.97;5043116;28;45304;-40
2022/02/01 05:03:18;;;;;;;;;8.00;4.50;;;;;6.94;56.04;102186.31;5042822;28;45237;-41
2022/02/01 05:05:44;;;;;;;;;7.75;5.00;;;;;6.95;56.30;102185.47;5043161;28;45270;-41
2022/02/01 05:08:11;;;;;;;;;8.50;6.25;;;;;6.97;56.29;102187.25;5041515;28;45529;-41
2022/02/01 05:10:37;;;;;;;;;5.00;5.00;;;;;6.98;56.25;102170.75;5042533;28;46272;-41
2022/02/01 05:15:51;;;;;;;;;6.00;3.75;;;;;7.06;56.49;102177.88;5042996;28;45365;-41
2022/02/01 05:18:20;;;;;;;;;8.25;5.00;;;;;7.08;56.64;102176.16;5042468;28;45580;-41
2022/02/01 05:20:57;;;;;;;;;9.00;5.00;;;;;7.05;56.75;102190.06;5042706;28;46988;-41
2022/02/01 05:23:23;;;;;;;;;6.75;6.00;;;;;7.03;56.76;102190.88;5042657;28;45288;-42
2022/02/01 05:25:50;;;;;;;;;8.00;6.00;;;;;7.05;57.20;102202.25;5042632;28;45335;-40
2022/02/01 05:28:15;;;;;;;;;8.00;5.25;;;;;7.04;57.11;102201.34;5041540;28;46055;-40
2022/02/01 05:30:40;;;;;;;;;9.00;6.25;;;;;7.04;57.29;102209.19;5042445;28;45368;-40
2022/02/01 05:33:06;;;;;;;;;5.00;5.00;;;;;7.02;57.10;102208.28;5042560;28;45255;-40
2022/02/01 05:35:31;;;;;;;;;11.25;6.75;;;;;7.01;57.22;102193.44;5041354;28;45243;-40
2022/02/01 05:37:58;;;;;;;;;5.00;5.00;;;;;7.02;57.41;102197.84;5042860;28;45265;-40
2022/02/01 05:40:26;;;;;;;;;7.00;5.00;;;;;7.02;57.44;102218.75;5042117;28;45425;-40
2022/02/01 05:43:12;;;;;;;;;5.00;5.00;;;;;7.01;57.75;102209.13;5042630;28;45240;-40
2022/02/01 05:45:41;;;;;;;;;7.50;4.25;;;;;6.99;57.71;102206.50;5042490;28;45457;-40
2022/02/01 05:48:10;;;;;;;;;4.75;4.25;;;;;6.99;58.07;102197.75;5042115;28;45537;-41
2022/02/01 05:50:35;;;;;;;;;6.75;4.75;;;;;6.97;57.85;102189.00;5042193;28;45566;-40
2022/02/01 05:53:01;;;;;;;;;4.50;3.00;;;;;6.96;57.92;102176.78;5040976;28;45268;-41
2022/02/01 05:55:26;;;;;;;;;6.75;6.00;;;;;6.96;58.04;102176.78;5040952;28;45315;-40
2022/02/01 05:57:53;;;;;;;;;4.75;3.50;;;;;6.97;58.04;102175.94;5042280;28;45504;-40
2022/02/01 06:00:20;;;;;;;;;1.75;1.75;;;;;6.97;57.91;102168.09;5040899;28;47209;-41
2022/02/01 06:02:46;;;;;;;;;8.00;5.50;;;;;6.98;58.19;102169.84;5041982;28;45251;-40
2022/02/01 06:05:14;;;;;;;;;8.75;4.50;;;;;6.95;58.01;102148.88;5042004;28;45292;-40
2022/02/01 06:07:40;;;;;;;;;1.75;1.00;;;;;6.98;58.44;102144.59;5054370;28;45444;-40
2022/02/01 06:10:06;;;;;;;;;8.00;7.00;;;;;6.99;58.12;102135.91;5048934;28;45430;-41
2022/02/01 06:12:48;;;;;;;;;6.25;5.00;;;;;6.99;58.26;102141.16;5040680;27;45355;-41
2022/02/01 06:15:17;;;;;;;;;8.00;5.50;;;;;6.97;58.25;102136.72;5042223;28;45428;-40
2022/02/01 06:17:43;;;;;;;;;7.00;5.00;;;;;7.02;58.38;102150.78;5041505;28;45243;-40
2022/02/01 06:20:11;;;;;;;;;10.50;7.75;;;;;7.02;58.28;102145.56;5041592;28;46292;-40
2022/02/01 06:22:36;;;;;;;;;5.25;5.00;;;;;7.05;58.45;102140.38;5042020;28;45389;-41
2022/02/01 06:25:03;;;;;;;;;8.00;5.00;;;;;7.07;58.24;102146.53;5041872;28;45295;-41
2022/02/01 06:27:29;;;;;;;;;10.00;5.75;;;;;7.09;58.23;102146.56;5041650;28;45437;-41
2022/02/01 06:29:54;;;;;;;;;15.25;7.50;;;;;7.09;58.32;102136.97;5041532;28;45166;-41
2022/02/01 06:32:20;;;;;;;;;8.50;6.25;;;;;7.06;58.34;102129.09;5040152;28;45330;-40
2022/02/01 06:34:46;;;;;;;;;10.00;6.50;;;;;7.08;58.36;102137.84;5041783;28;45280;-40
2022/02/01 06:37:12;;;;;;;;;8.75;7.75;;;;;7.10;58.60;102143.97;5041198;28;45385;-40
2022/02/01 06:39:38;;;;;;;;;8.75;7.75;;;;;7.12;58.43;102142.28;5041126;28;46625;-40
2022/02/01 06:42:04;;;;;;;;;9.50;7.50;;;;;7.13;58.30;102140.56;5041336;28;45512;-40
2022/02/01 06:44:30;;;;;;;;;7.75;7.25;;;;;7.15;58.68;102136.25;5041736;28;45252;-40
2022/02/01 06:46:56;;;;;;;;;14.25;10.00;;;;;7.14;58.65;102132.78;5041057;28;45323;-40
2022/02/01 06:49:22;;;;;;;;;10.75;9.75;;;;;7.16;58.68;102141.50;5041401;28;45334;-40
2022/02/01 06:51:47;;;;;;;;;10.50;9.00;;;;;7.16;58.97;102151.09;5036611;28;45449;-40
2022/02/01 06:54:13;;;;;;;;;8.50;7.75;;;;;7.19;58.74;102155.50;5042070;28;45461;-44
2022/02/01 06:56:39;;;;;;;;;10.25;7.75;;;;;7.21;58.86;102145.94;5037465;28;45244;-42
2022/02/01 06:59:05;;;;;;;;;15.50;8.50;;;;;7.18;58.74;102151.13;5041830;28;46236;-43
2022/02/01 07:01:31;;;;;;;;;12.50;9.00;;;;;7.18;58.92;102146.75;5036010;28;45528;-42
2022/02/01 07:03:58;;;;;;;;;9.25;9.25;;;;;7.19;58.94;102158.13;5040907;28;45442;-42
2022/02/01 07:06:25;;;;;;;;;9.25;9.00;;;;;7.21;58.89;102152.09;5040020;28;45387;-42
2022/02/01 07:08:51;;;;;;;;;9.75;9.75;;;;;7.21;59.10;102149.47;5040108;28;45461;-44
2022/02/01 07:11:18;;;;;;;;;13.25;11.00;;;;;7.23;58.85;102154.72;5026784;28;45360;-42
2022/02/01 07:13:45;;;;;;;;;13.25;10.00;;;;;7.26;58.89;102165.25;5022288;28;45187;-41
2022/02/01 07:16:11;;;;;;;;;11.25;8.50;;;;;7.25;59.15;102153.03;5022713;28;45702;-43
2022/02/01 07:18:36;;;;;;;;;12.25;10.25;;;;;7.26;58.82;102152.19;5021912;28;45817;-43
2022/02/01 07:21:02;;;;;;;;;16.50;11.25;;;;;7.27;59.12;102146.09;5031040;28;45377;-42
2022/02/01 07:23:28;;;;;;;;;12.50;11.75;;;;;7.28;59.29;102143.53;5034098;28;45260;-43
2022/02/01 07:25:57;;;;;;;;;11.25;8.75;;;;;7.29;59.08;102144.41;5037365;28;45461;-41
2022/02/01 07:28:25;;;;;;;;;11.25;9.75;;;;;7.31;59.15;102150.56;5040208;28;45388;-41
2022/02/01 07:30:51;;;;;;;;;14.00;11.00;;;;;7.30;59.21;102147.03;5040350;28;45422;-41
2022/02/01 07:33:16;;;;;;;;;18.00;11.00;;;;;7.30;59.25;102151.41;5038926;28;45341;-43
2022/02/01 07:35:45;;;;;;;;;11.00;10.75;;;;;7.30;59.35;102162.72;5040641;28;45269;-44
2022/02/01 07:38:11;;;;;;;;;12.75;12.00;;;;;7.35;59.22;102157.63;5027178;28;46312;-46
2022/02/01 07:40:37;;;;;;;;;15.50;11.25;;;;;7.37;59.33;102157.63;5029189;28;45249;-43
2022/02/01 07:43:03;;;;;;;;;22.50;18.50;;;;;7.38;59.54;102151.56;5040523;28;45220;-44
2022/02/01 07:45:30;;;;;;;;;14.75;12.75;;;;;7.37;59.43;102148.06;5040466;28;45378;-42
2022/02/01 07:48:03;;;;;;;;;12.50;11.50;;;;;7.35;59.75;102139.31;5042232;28;45233;-44
2022/02/01 07:50:29;;;;;;;;;21.50;15.50;;;;;7.37;59.69;102136.72;5060629;27;45428;-47
2022/02/01 07:52:55;;;;;;;;;18.00;14.75;;;;;7.37;59.40;102127.16;5051334;28;45372;-44
2022/02/01 07:55:20;;;;;;;;;20.50;16.00;;;;;7.37;59.63;102127.16;5040330;28;45560;-45
2022/02/01 07:57:46;;;;;;;;;16.25;12.00;;;;;7.36;59.81;102112.31;5037168;28;47181;-44
2022/02/01 08:00:12;;;;;;;;;15.50;9.75;;;;;7.38;59.60;102113.19;5055038;28;45326;-43
2022/02/01 08:02:37;;;;;;;;;16.50;12.00;;;;;7.39;59.67;102103.63;5040323;28;45369;-45
2022/02/01 08:05:04;;;;;;;;;13.00;12.25;;;;;7.40;59.97;102102.78;5040447;28;45333;-47
2022/02/01 08:07:30;;;;;;;;;16.25;11.75;;;;;7.40;59.89;102100.19;5040335;28;45311;-46
2022/02/01 08:09:59;;;;;;;;;10.00;9.00;;;;;7.36;60.14;102093.09;5039861;28;45347;-44
2022/02/01 08:18:15;;;;;;;;;9.25;9.00;;;;;7.36;60.19;102086.16;5033924;28;45232;-43
2022/02/01 08:20:49;;;;;;;;;10.50;9.25;;;;;7.37;60.31;102074.84;5039948;28;45374;-44
2022/02/01 08:23:14;;;;;;;;;12.25;11.00;;;;;7.34;60.37;102066.91;5040054;28;45210;-43
2022/02/01 08:25:43;;;;;;;;;14.00;11.25;;;;;7.37;60.35;102077.47;5039854;28;45434;-43
2022/02/01 08:28:10;;;;;;;;;13.25;10.00;;;;;7.36;60.46;102061.72;5039760;28;45381;-44
2022/02/01 08:30:36;;;;;;;;;15.00;13.00;;;;;7.37;60.85;102061.78;5038567;28;45210;-44
2022/02/01 08:33:02;;;;;;;;;14.50;9.00;;;;;7.38;60.61;102067.88;5039631;28;45272;-43
2022/02/01 08:35:27;;;;;;;;;17.75;10.75;;;;;7.36;60.59;102062.63;5039938;28;45372;-45
2022/02/01 08:37:53;;;;;;;;;10.25;9.50;;;;;7.39;60.85;102073.13;5039677;28;45271;-43
2022/02/01 08:40:19;;;;;;;;;8.50;7.75;;;;;7.39;60.71;102057.44;5039493;28;45492;-43
2022/02/01 08:42:46;;;;;;;;;11.00;9.75;;;;;7.39;60.83;102060.03;5039786;28;45241;-43
2022/02/01 08:45:13;;;;;;;;;10.50;9.50;;;;;7.40;60.95;102051.34;5038562;28;45422;-43
2022/02/01 08:47:40;;;;;;;;;7.75;7.75;;;;;7.42;60.84;102048.75;5039118;28;46180;-42
2022/02/01 08:50:06;;;;;;;;;15.50;11.75;;;;;7.43;60.98;102045.28;5039473;28;45271;-42
2022/02/01 08:52:42;;;;;;;;;12.00;10.75;;;;;7.43;61.01;102045.28;5039650;28;45356;-43
2022/02/01 08:55:18;;;;;;;;;12.25;8.25;;;;;7.46;60.97;102048.00;5039390;28;45265;-43
2022/02/01 08:57:44;;;;;;;;;10.50;8.25;;;;;7.47;60.94;102040.16;5038404;28;46236;-43
2022/02/01 09:00:13;;;;;;;;;16.75;8.00;;;;;7.49;60.98;102041.06;5038129;28;45429;-43
2022/02/01 09:02:39;;;;;;;;;9.75;5.50;;;;;7.47;61.58;102024.47;5039506;28;45336;-42
2022/02/01 09:05:06;;;;;;;;;11.75;4.50;;;;;7.49;61.71;102027.97;5039329;28;45319;-43
2022/02/01 09:07:31;;;;;;;;;9.25;8.75;;;;;7.53;61.51;102030.66;5039089;28;45851;-46
2022/02/01 09:09:57;;;;;;;;;0.50;0.00;;;;;7.53;61.49;102026.31;5038077;28;45193;-42
2022/02/01 09:12:22;;;;;;;;;5.75;5.75;;;;;7.55;61.84;102026.38;5039669;28;45371;-45
2022/02/01 09:14:48;;;;;;;;;5.25;5.00;;;;;7.58;61.53;102026.41;5039584;28;45177;-45
2022/02/01 09:17:14;;;;;;;;;14.50;7.00;;;;;7.57;61.94;102009.84;5037921;28;48308;-44
2022/02/01 09:19:43;;;;;;;;;10.25;5.00;;;;;7.57;62.01;102012.47;5039295;28;45306;-45
2022/02/01 09:22:13;;;;;;;;;9.00;6.75;;;;;7.61;62.07;102005.50;5039257;28;45318;-44
2022/02/01 09:24:41;;;;;;;;;10.75;8.75;;;;;7.63;62.03;101998.59;5039022;28;45260;-44
2022/02/01 09:27:07;;;;;;;;;8.50;6.75;;;;;7.65;62.31;101996.91;5039068;28;46361;-45
2022/02/01 09:29:33;;;;;;;;;11.50;9.75;;;;;7.66;62.34;102009.13;5039681;28;45304;-44
2022/02/01 09:32:00;;;;;;;;;8.50;6.00;;;;;7.64;62.64;101984.66;5041247;28;45280;-44
2022/02/01 09:34:25;;;;;;;;;8.00;5.25;;;;;7.69;62.36;101998.69;5042678;28;45560;-44
2022/02/01 09:36:53;;;;;;;;;7.25;7.25;;;;;7.71;62.44;101991.78;5042379;28;45407;-45
2022/02/01 09:39:20;;;;;;;;;7.50;6.50;;;;;7.71;62.63;101996.09;5042443;28;45212;-47
2022/02/01 09:41:46;;;;;;;;;7.00;7.00;;;;;7.72;62.85;101990.94;5042233;28;45290;-42
2022/02/01 09:44:12;;;;;;;;;7.25;7.00;;;;;7.71;62.48;101991.78;5042583;28;45343;-43
2022/02/01 09:46:37;;;;;;;;;9.00;9.00;;;;;7.71;62.90;101986.53;5042290;28;45426;-44
2022/02/01 09:49:04;;;;;;;;;11.00;8.75;;;;;7.75;62.77;101993.56;5040951;28;45367;-42
2022/02/01 09:51:29;;;;;;;;;8.25;5.75;;;;;7.75;63.07;101993.56;5042418;28;45320;-45
2022/02/01 09:53:55;;;;;;;;;12.75;9.50;;;;;7.73;63.15;101991.78;5040776;28;45338;-46
2022/02/01 09:56:20;;;;;;;;;3.50;3.50;;;;;7.67;63.46;101986.44;5042132;28;46271;-42
2022/02/01 09:58:54;;;;;;;;;10.00;6.00;;;;;7.69;63.39;101988.25;5042660;28;45290;-43
2022/02/01 10:01:27;;;;;;;;;11.25;8.00;;;;;7.68;63.38;101983.84;5042168;28;45364;-43
2022/02/01 10:04:18;;;;;;;;;9.75;5.75;;;;;7.70;63.41;101984.78;5041981;28;45329;-42
2022/02/01 10:06:43;;;;;;;;;8.50;6.25;;;;;7.72;63.37;101995.25;5027564;28;45216;-42
2022/02/01 10:09:14;;;;;;;;;13.50;8.50;;;;;7.72;63.51;101987.41;5041936;28;45256;-42
2022/02/01 10:11:43;;;;;;;;;11.75;9.25;;;;;7.75;63.49;102003.19;5042285;28;45318;-44
2022/02/01 10:14:12;;;;;;;;;8.25;8.00;;;;;7.76;63.24;102005.81;5041953;28;45467;-48
2022/02/01 10:16:51;;;;;;;;;10.75;9.75;;;;;7.73;63.49;101990.03;5041909;28;45369;-45
2022/02/01 10:19:18;;;;;;;;;12.00;9.75;;;;;7.75;63.52;101987.47;5041706;28;45278;-43
2022/02/01 10:21:59;;;;;;;;;9.25;8.50;;;;;7.75;63.51;101998.81;5041939;28;45319;-43
2022/02/01 10:24:33;;;;;;;;;10.50;10.25;;;;;7.71;63.60;101965.59;5041576;28;45387;-43
2022/02/01 10:27:06;;;;;;;;;13.00;10.75;;;;;7.80;63.68;101986.69;5041781;28;45395;-45
2022/02/01 10:29:34;;;;;;;;;13.50;9.00;;;;;7.80;63.77;101991.06;5041677;28;45411;-46
2022/02/01 10:32:01;;;;;;;;;10.25;10.00;;;;;7.79;64.12;101995.38;5041534;28;45391;-44
2022/02/01 10:37:24;;;;;;;;;6.25;4.25;;;;;7.88;64.02;101978.97;5041537;28;45467;-46
2022/02/01 10:39:57;;;;;;;;;8.25;5.00;;;;;7.90;63.85;101973.75;5040207;28;45517;-45
2022/02/01 10:42:24;;;;;;;;;15.00;11.50;;;;;7.91;64.04;101978.13;5040768;28;45268;-46
2022/02/01 10:44:55;;;;;;;;;10.50;6.00;;;;;7.94;63.85;101986.91;5041547;28;45234;-43
2022/02/01 10:47:30;;;;;;;;;10.00;10.00;;;;;7.95;63.77;101970.34;5041005;28;45595;-45
2022/02/01 10:50:06;;;;;;;;;14.50;12.50;;;;;7.94;64.22;101957.25;5041324;28;45288;-44
2022/02/01 10:52:40;;;;;;;;;9.75;9.75;;;;;8.00;64.06;101961.69;5041452;28;45226;-45
2022/02/01 10:55:08;;;;;;;;;14.00;11.50;;;;;7.99;64.36;101966.06;5041019;28;45406;-44
2022/02/01 10:57:34;;;;;;;;;15.50;12.50;;;;;8.01;64.11;101958.22;5041200;28;45216;-44
2022/02/01 11:00:01;;;;;;;;;11.75;9.25;;;;;8.03;64.37;101948.66;5039795;28;45881;-44
2022/02/01 11:02:28;;;;;;;;;13.25;10.00;;;;;8.06;64.24;101936.50;5041319;28;45467;-46
2022/02/01 11:04:54;;;;;;;;;12.50;9.50;;;;;8.08;64.32;101926.06;5040966;28;45244;-45
2022/02/01 11:07:21;;;;;;;;;9.75;6.50;;;;;8.09;64.45;101923.44;5040923;28;45988;-46
2022/02/01 11:09:46;;;;;;;;;7.25;7.25;;;;;8.13;64.38;101920.00;5039613;28;45244;-42
2022/02/01 11:12:12;;;;;;;;;9.25;9.25;;;;;8.19;64.43;101913.09;5041169;28;45194;-44
2022/02/01 11:14:41;;;;;;;;;6.50;6.50;;;;;8.22;64.58;101919.25;5040990;28;45238;-44
2022/02/01 11:17:08;;;;;;;;;10.75;9.25;;;;;8.20;64.47;101900.06;5040725;28;47018;-44
2022/02/01 11:19:53;;;;;;;;;10.50;8.75;;;;;8.31;64.36;101908.03;5040610;28;45335;-43
2022/02/01 11:22:25;;;;;;;;;10.00;6.25;;;;;8.36;64.36;101914.22;5040918;28;45313;-44
2022/02/01 11:24:59;;;;;;;;;12.50;10.50;;;;;8.36;64.62;101893.25;5040854;28;45452;-43
2022/02/01 11:27:38;;;;;;;;;9.00;6.00;;;;;8.43;64.52;101889.88;5040595;28;45304;-44
2022/02/01 11:30:13;;;;;;;;;8.25;8.25;;;;;8.47;64.62;101911.78;5040765;28;45338;-43
2022/02/01 11:32:52;;;;;;;;;52.75;38.75;;;;;8.51;64.49;101900.47;5040457;28;45316;-43
2022/02/01 11:35:24;;;;;;;;;4.00;4.00;;;;;8.55;64.61;101894.44;5039370;28;45509;-47
2022/02/01 11:37:59;;;;;;;;;20.25;17.00;;;;;8.58;64.57;101889.22;5040652;28;46394;-46
2022/02/01 11:40:25;;;;;;;;;6.50;6.50;;;;;8.63;64.69;101884.06;5040260;28;45327;-44
2022/02/01 11:42:58;;;;;;;;;13.25;8.50;;;;;8.67;64.48;101884.97;5040769;28;45412;-43
2022/02/01 11:45:52;;;;;;;;;6.25;6.25;;;;;8.70;64.76;101882.38;5040606;28;45390;-45
2022/02/01 11:48:36;;;;;;;;;8.00;7.50;;;;;8.77;64.52;101879.84;5039628;28;45494;-48
2022/02/01 11:51:12;;;;;;;;;8.50;8.50;;;;;8.82;64.72;101876.38;5040508;28;45505;-44
2022/02/01 11:53:44;;;;;;;;;8.75;8.75;;;;;8.86;64.79;101873.81;5040346;28;45422;-43
2022/02/01 11:56:16;;;;;;;;;6.00;6.00;;;;;8.89;64.50;101866.00;5040424;28;45250;-47
2022/02/01 11:58:47;;;;;;;;;9.25;8.50;;;;;8.92;64.85;101866.03;5040216;28;45982;-44
2022/02/01 12:01:24;;;;;;;;;9.00;7.00;;;;;8.96;64.79;101869.56;5039061;28;45401;-48
2022/02/01 12:04:07;;;;;;;;;6.00;6.00;;;;;9.00;65.00;101873.97;5040197;28;45350;-42
2022/02/01 12:06:47;;;;;;;;;10.25;8.25;;;;;8.95;64.98;101854.69;5040046;28;45469;-45
2022/02/01 12:09:23;;;;;;;;;6.50;6.50;;;;;9.07;64.79;101878.41;5039881;28;46124;-47
2022/02/01 12:11:57;;;;;;;;;7.00;6.00;;;;;9.10;64.88;101870.56;5040318;28;45465;-42
2022/02/01 12:14:22;;;;;;;;;7.00;7.00;;;;;9.16;65.06;101856.66;5040123;28;45416;-42
2022/02/01 12:16:50;;;;;;;;;8.00;7.50;;;;;9.21;65.04;101872.44;5039940;28;45238;-44
2022/02/01 12:19:40;;;;;;;;;9.50;6.75;;;;;9.26;64.89;101868.13;5038607;28;46992;-45
2022/02/01 12:22:47;;;;;;;;;6.75;5.00;;;;;9.30;65.08;101858.53;5039638;28;45288;-44
2022/02/01 12:25:13;;;;;;;;;5.00;5.00;;;;;9.35;65.00;101859.44;5038760;28;45305;-43
2022/02/01 12:27:43;;;;;;;;;6.75;5.75;;;;;9.38;65.13;101855.13;5039764;28;45540;-43
2022/02/01 12:30:10;;;;;;;;;7.75;5.50;;;;;9.41;65.21;101849.88;5040026;28;45357;-45
2022/02/01 12:32:47;;;;;;;;;5.75;5.00;;;;;9.44;65.19;101836.75;5039413;28;45306;-46
2022/02/01 12:35:12;;;;;;;;;4.75;4.75;;;;;9.50;65.03;101832.47;5039902;28;45595;-45
2022/02/01 12:37:37;;;;;;;;;5.25;4.00;;;;;9.53;65.17;101825.47;5038609;28;45172;-44
2022/02/01 12:40:11;;;;;;;;;6.75;4.75;;;;;9.59;65.11;101819.41;5039372;28;46128;-47
2022/02/01 12:42:54;;;;;;;;;4.25;4.25;;;;;9.64;65.21;101822.06;5039852;28;45332;-44
2022/02/01 12:48:05;;;;;;;;;5.25;5.00;;;;;9.70;65.07;101806.34;5039456;28;45381;-45
2022/02/01 12:50:31;;;;;;;;;8.00;3.00;;;;;9.74;65.25;101808.13;5039473;28;46357;-45
2022/02/01 12:53:03;;;;;;;;;4.50;4.50;;;;;9.76;65.50;101799.38;5039566;28;45228;-43
2022/02/01 12:55:29;;;;;;;;;3.50;3.50;;;;;9.80;65.28;101791.50;5009113;28;45320;-46
2022/02/01 12:58:03;;;;;;;;;5.00;3.75;;;;;9.85;65.30;101795.03;5038209;28;46030;-45
2022/02/01 13:00:29;;;;;;;;;5.00;4.25;;;;;9.88;64.95;101795.06;5039647;28;45420;-44
2022/02/01 13:02:58;;;;;;;;;4.50;4.50;;;;;9.89;65.30;101792.47;5039087;28;45320;-44
2022/02/01 13:05:25;;;;;;;;;4.75;4.00;;;;;9.93;65.40;101799.47;5041457;28;45295;-45